Latest Coastal Weather Observations for Adelaide Airport

IDS60701

Issued at 11:51 am CST Tuesday 28 June 2022 (issued every 10 minutes, with the page automatically refreshed every 10 minutes)

About coastal observations | Map of coastal stations | Coastal observations for SA | Marine services | Other Formats
Station Details ID: 023034 Name: ADELAIDE AIRPORT Lat: -34.95 Lon: 138.52 Height: 2.0 m
Data from the previous 72 hours. | See also: Recent months at Adelaide Airport
Date/Time
CST
Wind Sea
Height
m
Swell Vis
km
Cloud Weather Temp
°C
Press
MSL
hPa
Rain since
9am
mm
Dir  Spd
kts
Gust
kts
Height
m
Period
s
Dir
28/11:30am N 12 15 - - - - 10 - - 13.5 1029.3 0.0
28/11:00am N 12 16 - - - - 10 - - 13.1 1029.7 0.0
28/10:30am N 12 17 - - - - 10 - - 12.5 1029.9 0.0
28/10:00am NNE 12 16 - - - - 10 - - 12.1 1029.9 0.0
28/09:30am NNE 10 14 - - - - 10 - - 11.3 1029.7 0.0
28/09:00am NE 8 10 - - - - 40 Mostly clear Fine 10.2 1029.8 0.0
28/08:30am NE 7 7 - - - - 10 - - 8.7 1029.9 0.0
28/08:00am NE 8 9 - - - - 10 - - 7.2 1030.0 0.0
28/07:30am NNE 8 9 - - - - 10 - - 7.1 1030.0 0.0
28/07:00am NE 10 11 - - - - 10 - - 6.9 1029.5 0.0
28/06:30am NE 9 12 - - - - 10 - - 7.9 1029.5 0.0
28/06:00am NE 9 10 - - - - 30 Partly cloudy Fine 7.5 1029.2 0.0
28/05:30am NE 8 10 - - - - 10 - - 7.0 1029.3 0.0
28/05:00am NE 9 12 - - - - 10 - - 8.3 1029.2 0.0
28/04:30am NE 10 10 - - - - 10 - - 7.9 1029.1 0.0
28/04:00am NNE 9 10 - - - - 10 - - 7.9 1029.4 0.0
28/03:30am NE 9 10 - - - - 10 - - 7.7 1029.5 0.0
28/03:00am NE 9 10 - - - - 30 Partly cloudy Fine 5.7 1030.0 0.0
28/02:30am NE 7 8 - - - - 10 - - 6.4 1030.5 0.0
28/02:00am NE 7 8 - - - - 10 - - 7.9 1030.6 0.0
28/01:30am NE 8 9 - - - - 10 - - 8.0 1030.6 0.0
28/01:00am NE 8 9 - - - - 10 - - 8.5 1030.9 0.0
28/12:30am NE 8 10 - - - - 10 - - 8.3 1031.1 0.0
28/12:00am NE 9 10 - - - - 30 Partly cloudy Fine 8.2 1031.5 0.0
 
Date/Time
CST
Wind Sea
Height
m
Swell Vis
km
Cloud Weather Temp
°C
Press
MSL
hPa
Rain since
9am
mm
Dir  Spd
kts
Gust
kts
Height
m
Period
s
Dir
27/11:30pm NE 9 9 - - - - 10 - - 8.2 1031.7 0.0
27/11:00pm NE 7 9 - - - - 10 - - 7.0 1032.1 0.0
27/10:30pm NE 7 8 - - - - 10 - - 8.3 1032.5 0.0
27/10:00pm NE 7 8 - - - - 10 - - 8.0 1032.5 0.0
27/09:30pm NE 5 5 - - - - 10 - - 6.9 1032.7 0.0
27/09:00pm E 4 4 - - - - 30 Partly cloudy Fine 6.9 1032.9 0.0
27/08:30pm E 3 4 - - - - 10 - - 7.9 1033.1 0.0
27/08:00pm E 4 4 - - - - 10 - - 8.2 1033.1 0.0
27/07:30pm E 6 6 - - - - 10 - - 8.6 1033.1 0.0
27/07:00pm S 4 5 - - - - 10 - - 8.3 1033.1 0.0
27/06:30pm S 4 5 - - - - 10 - - 9.2 1033.3 0.0
27/06:00pm SSW 4 4 - - - - 40 Mostly cloudy Fine 9.8 1033.0 0.0
27/05:30pm SSW 5 6 - - - - 10 Mostly clear - 10.2 1032.8 0.0
27/05:00pm SW 5 5 - - - - 10 Mostly clear - 11.4 1032.7 0.0
27/04:30pm WSW 5 6 - - - - 10 Mostly clear - 12.3 1033.0 0.0
27/04:00pm WSW 5 7 - - - - 10 Mostly clear - 12.6 1032.9 0.0
27/03:30pm W 7 8 - - - - 10 Mostly clear - 12.8 1033.0 0.0
27/03:00pm W 8 10 - - - - 40 Mostly clear Fine 13.5 1033.3 0.0
27/02:30pm W 9 10 - - - - 10 Mostly clear - 13.2 1033.5 0.0
27/02:00pm W 8 10 - - - - 10 Mostly clear - 13.3 1033.7 0.0
27/01:30pm W 7 9 - - - - 10 Mostly clear - 13.1 1034.2 0.0
27/01:00pm NNE 5 7 - - - - 10 Mostly clear - 13.5 1034.8 0.0
27/12:30pm NNW 5 8 - - - - 10 Partly cloudy - 13.4 1035.2 0.0
27/12:00pm NNW 5 7 - - - - 35 Partly cloudy Fine 13.4 1035.6 0.0
27/11:30am NNW 3 9 - - - - 10 Partly cloudy - 13.0 1036.1 0.0
27/11:00am N 5 7 - - - - 10 Mostly clear - 12.8 1036.3 0.0
27/10:30am NNE 5 7 - - - - 10 Mostly clear - 12.3 1036.4 0.0
27/10:00am NNE 5 7 - - - - 10 Mostly clear - 12.1 1036.4 0.0
27/09:30am CALM 0 0 - - - - 10 Mostly clear - 10.4 1036.1 0.0
27/09:00am E 3 4 - - - - 30 Mostly clear Fine 9.0 1035.9 0.0
27/08:30am NE 4 4 - - - - 10 Mostly clear - 7.7 1035.4 0.0
27/08:00am NNE 5 6 - - - - 10 Mostly clear - 6.0 1035.0 0.0
27/07:30am NE 4 5 - - - - 10 Mostly clear - 5.1 1034.7 0.0
27/07:00am ENE 4 5 - - - - 10 Mostly cloudy - 5.2 1034.5 0.0
27/06:30am CALM 0 0 - - - - 10 Cloudy - 4.9 1034.5 0.0
27/06:00am ENE 4 5 - - - - 10 Mostly clear - 4.2 1034.5 0.0
27/05:30am ENE 3 5 - - - - 10 Partly cloudy - 4.1 1034.2 0.0
27/05:00am ENE 4 5 - - - - 10 Partly cloudy - 4.9 1033.7 0.0
27/04:30am CALM 0 0 - - - - 10 Partly cloudy - 3.5 1033.6 0.0
27/04:00am CALM 0 0 - - - - 10 - - 4.1 1033.5 0.0
27/03:30am CALM 0 0 - - - - 10 - - 4.8 1033.7 0.0
27/03:00am CALM 0 0 - - - - 10 - - 4.3 1033.7 0.0
27/02:30am ENE 1 4 - - - - 10 - - 4.9 1033.5 0.0
27/02:00am E 4 5 - - - - 10 - - 5.4 1033.6 0.0
27/01:30am CALM 0 0 - - - - 10 - - 5.9 1033.7 0.0
27/01:00am CALM 0 0 - - - - 10 Partly cloudy - 6.5 1033.7 0.0
27/12:30am E 4 5 - - - - 10 Partly cloudy - 7.1 1033.7 0.0
27/12:00am SE 5 6 - - - - 10 - - 6.4 1033.7 0.0
 
Date/Time
CST
Wind Sea
Height
m
Swell Vis
km
Cloud Weather Temp
°C
Press
MSL
hPa
Rain since
9am
mm
Dir  Spd
kts
Gust
kts
Height
m
Period
s
Dir
26/11:30pm S 1 3 - - - - 10 - - 6.6 1033.4 0.0
26/11:00pm S 3 4 - - - - 10 - - 6.7 1033.2 0.0
26/10:30pm S 4 5 - - - - 10 - - 7.1 1033.0 0.0
26/10:00pm S 4 5 - - - - 10 - - 7.9 1032.8 0.0
26/09:30pm SSE 5 6 - - - - 10 - - 7.6 1032.6 0.0
26/09:00pm S 5 5 - - - - 10 - - 8.0 1032.3 0.0
26/08:30pm CALM 0 0 - - - - 10 - - 9.0 1032.0 0.0
26/08:00pm S 3 4 - - - - 10 - - 9.7 1031.6 0.0
26/07:30pm SSW 4 5 - - - - 10 - - 10.4 1031.5 0.0
26/07:00pm S 5 6 - - - - 10 - - 10.8 1031.0 0.0
26/06:30pm S 7 10 - - - - 10 Mostly clear - 11.5 1030.8 0.0
26/06:00pm S 8 10 - - - - 25 Mostly clear Fine 12.2 1030.3 0.0
26/05:30pm S 9 13 - - - - 10 Mostly clear - 12.8 1029.7 0.0
26/05:00pm SSW 9 12 - - - - 10 Mostly clear - 13.5 1029.3 0.0
26/04:30pm SSW 13 17 - - - - 10 Mostly clear - 13.8 1029.0 0.0
26/04:00pm SSW 12 16 - - - - 10 Mostly clear - 13.9 1028.7 0.0
26/03:30pm SSW 11 18 - - - - 10 Mostly clear - 14.0 1028.4 0.0
26/03:00pm SSW 13 17 - - - - 25 Mostly cloudy Distant precip. 13.7 1028.3 0.0
26/02:30pm SW 15 21 - - - - 10 Mostly clear - 14.1 1028.1 0.0
26/02:00pm SW 12 17 - - - - 10 Mostly clear - 14.6 1027.6 0.0
26/01:30pm SW 9 12 - - - - 10 Mostly clear - 14.3 1027.8 0.0
26/01:00pm WSW 9 14 - - - - 10 Mostly clear - 13.9 1027.8 0.0
26/12:30pm W 11 15 - - - - 10 Mostly clear - 15.0 1027.9 0.0
26/12:00pm WNW 13 17 - - - - 15 Mostly cloudy Showers 13.5 1027.9 0.0
26/11:30am W 7 9 - - - - 10 Mostly clear - 15.2 1028.1 0.0
26/11:00am W 8 10 - - - - 10 Mostly clear - 14.7 1028.4 0.0
26/10:30am W 8 10 - - - - 10 Mostly clear - 14.7 1028.3 0.0
26/10:23am W 8 10 - - - - 10 Mostly clear - 14.8 1028.2 0.0
26/10:00am W 9 11 - - - - 10 Mostly clear Showers 14.3 1028.1 0.0
26/09:30am N 5 6 - - - - 10 Mostly clear - 14.0 1027.7 0.0
26/09:00am NE 6 7 - - - - 15 Mostly cloudy Distant precip. 12.7 1027.5 1.2
26/08:30am NE 5 6 - - - - 10 Mostly clear - 11.2 1027.4 1.2
26/08:00am NE 7 8 - - - - 10 Mostly clear - 11.1 1027.1 1.2
26/07:30am NE 5 6 - - - - 10 Mostly clear - 10.9 1026.7 1.2
26/07:00am NE 4 4 - - - - 10 Mostly clear - 10.1 1026.4 1.2
26/06:30am NE 5 6 - - - - 10 Mostly clear - 10.9 1025.9 1.2
26/06:00am ENE 4 4 - - - - 25 Mostly cloudy Distant precip. 11.2 1025.7 1.2
26/05:30am SSE 1 3 - - - - 10 Mostly clear - 11.3 1025.2 1.2
26/05:00am SW 11 16 - - - - 8 Mostly clear Showers 11.4 1025.1 1.2
26/04:39am WSW 15 19 - - - - 3 Mostly clear Showers 11.8 1025.1 0.6
26/04:30am WSW 12 17 - - - - 5 Mostly clear - 12.9 1025.0 0.4
26/04:00am W 10 14 - - - - 10 Mostly clear - 13.8 1024.7 0.4
26/03:30am NW 6 7 - - - - 10 Mostly clear - 13.6 1024.7 0.4
26/03:00am NNW 5 7 - - - - 25 Mostly cloudy Fine 13.4 1024.7 0.4
26/02:30am WNW 6 7 - - - - 10 Mostly clear - 13.1 1024.6 0.4
26/02:00am NW 7 8 - - - - 10 Mostly clear - 12.6 1024.7 0.4
26/01:30am WNW 7 9 - - - - 10 Mostly clear - 12.9 1024.6 0.4
26/01:00am WNW 8 11 - - - - 10 Mostly clear - 13.1 1024.5 0.4
26/12:30am NW 8 11 - - - - 10 Mostly clear - 13.1 1024.6 0.4
26/12:00am WNW 10 15 - - - - 25 Partly cloudy Distant precip. 13.5 1024.5 0.4
 
Date/Time
CST
Wind Sea
Height
m
Swell Vis
km
Cloud Weather Temp
°C
Press
MSL
hPa
Rain since
9am
mm
Dir  Spd
kts
Gust
kts
Height
m
Period
s
Dir
25/11:30pm NW 11 15 - - - - 10 Mostly clear - 13.3 1024.6 0.4
25/11:00pm NW 11 14 - - - - 10 Mostly clear - 13.6 1024.5 0.4
25/10:30pm NW 11 14 - - - - 10 Mostly clear - 13.4 1024.5 0.4
25/10:00pm NW 9 13 - - - - 10 Mostly clear - 13.4 1024.4 0.4
25/09:30pm NW 10 14 - - - - 10 Mostly clear - 13.4 1024.3 0.4
25/09:00pm NW 10 13 - - - - 25 Mostly cloudy Fine 13.7 1024.2 0.4
25/08:30pm NW 10 12 - - - - 10 Mostly clear - 13.8 1024.0 0.4
25/08:00pm NW 8 10 - - - - 10 Mostly clear - 13.5 1023.8 0.4
25/07:30pm NNW 7 8 - - - - 10 Mostly clear - 13.1 1023.6 0.4
25/07:00pm NNW 7 8 - - - - 10 Mostly clear - 13.1 1023.3 0.4
25/06:30pm NNW 9 12 - - - - 10 Mostly clear - 12.7 1023.1 0.4
25/06:00pm NW 9 14 - - - - 15 Mostly cloudy Drizzle 12.6 1022.6 0.4
25/05:32pm WSW 15 18 - - - - 6 Partly cloudy - 12.9 1022.7 0.0
25/05:30pm WSW 15 18 - - - - 6 Mostly cloudy - 13.0 1022.6 0.0
25/05:00pm WNW 8 12 - - - - 10 Partly cloudy - 13.8 1022.4 0.0
25/04:30pm NW 9 13 - - - - 10 Mostly clear - 15.0 1022.1 0.0
25/04:00pm NW 10 13 - - - - 10 Mostly clear - 15.2 1022.1 0.0
25/03:30pm NW 12 15 - - - - 10 Mostly clear - 15.4 1022.2 0.0
25/03:00pm NW 11 15 - - - - 30 Mostly cloudy Fine 15.5 1022.0 0.0
25/02:30pm NW 14 17 - - - - 10 Mostly clear - 15.6 1022.2 0.0
25/02:00pm NW 14 18 - - - - 10 Mostly clear - 15.6 1022.3 0.0
25/01:30pm NW 13 16 - - - - 10 Mostly clear - 15.4 1022.4 0.0
25/01:00pm NW 13 16 - - - - 10 Mostly clear - 15.6 1022.6 0.0
25/12:30pm NW 13 17 - - - - 10 Mostly clear - 14.7 1022.7 0.0
25/12:00pm WNW 13 16 - - - - 30 Partly cloudy Fine 15.1 1022.9 0.0

Other formats

Comma delimited format used in spreadsheet applications
http://www.bom.gov.au/fwo/IDS60701/IDS60701.94672.axf

JavaScript Object Notation format (JSON) in row-major order
http://www.bom.gov.au/fwo/IDS60701/IDS60701.94672.json

Data quality

Most of these data are generated automatically and are frequently updated. Quality checks on data are not normally performed. It is possible for incorrect values to appear. Refer to information at About Latest Weather Observations and please check the disclaimer before using these data.